sensor_id;sensor_type;location;lat;lon;timestamp;P1;P2;P0
77516;PMS7003;68414;53.946;27.634;2024-03-02T00:00:00;35.133335;32.233334;19.933332
77516;PMS7003;68414;53.946;27.634;2024-03-02T00:01:00;31.750000;29.733334;20.066668
77516;PMS7003;68414;53.946;27.634;2024-03-02T00:02:00;31.900000;29.633333;18.299999
77516;PMS7003;68414;53.946;27.634;2024-03-02T00:03:00;32.849998;29.966667;19.700001
77516;PMS7003;68414;53.946;27.634;2024-03-02T00:04:00;35.783333;32.250000;20.483334
77516;PMS7003;68414;53.946;27.634;2024-03-02T00:05:00;36.066666;32.950001;20.466667
77516;PMS7003;68414;53.946;27.634;2024-03-02T00:06:00;36.683334;32.250000;20.000000
77516;PMS7003;68414;53.946;27.634;2024-03-02T00:07:00;36.366665;32.700001;20.116667
77516;PMS7003;68414;53.946;27.634;2024-03-02T00:08:00;35.666668;32.033333;19.883333
77516;PMS7003;68414;53.946;27.634;2024-03-02T00:09:00;34.816666;30.933332;19.583334
77516;PMS7003;68414;53.946;27.634;2024-03-02T00:10:00;35.683334;32.666668;20.966667
77516;PMS7003;68414;53.946;27.634;2024-03-02T00:11:03;36.116665;30.666666;20.916666
77516;PMS7003;68414;53.946;27.634;2024-03-02T00:12:00;35.316666;32.283333;20.566668
77516;PMS7003;68414;53.946;27.634;2024-03-02T00:13:01;35.316666;32.783333;20.566668
77516;PMS7003;68414;53.946;27.634;2024-03-02T00:14:00;36.533333;32.516666;21.049999
77516;PMS7003;68414;53.946;27.634;2024-03-02T00:15:00;36.383335;33.383335;21.016666
77516;PMS7003;68414;53.946;27.634;2024-03-02T00:16:00;37.599998;33.450001;21.383333
77516;PMS7003;68414;53.946;27.634;2024-03-02T00:17:00;37.450001;32.799999;20.466667
77516;PMS7003;68414;53.946;27.634;2024-03-02T00:18:01;35.933334;32.133335;20.383333
77516;PMS7003;68414;53.946;27.634;2024-03-02T00:19:05;37.816666;33.433334;20.883333
77516;PMS7003;68414;53.946;27.634;2024-03-02T00:20:00;39.933334;34.450001;20.916666
77516;PMS7003;68414;53.946;27.634;2024-03-02T00:21:01;38.366665;34.083332;20.933332
77516;PMS7003;68414;53.946;27.634;2024-03-02T00:22:01;37.766666;33.950001;21.600000
77516;PMS7003;68414;53.946;27.634;2024-03-02T00:24:01;36.650002;32.599998;20.950001
77516;PMS7003;68414;53.946;27.634;2024-03-02T00:25:00;37.016666;33.200001;20.716667
77516;PMS7003;68414;53.946;27.634;2024-03-02T00:26:00;37.950001;33.783333;20.150000
77516;PMS7003;68414;53.946;27.634;2024-03-02T00:27:01;36.849998;33.500000;20.450001
77516;PMS7003;68414;53.946;27.634;2024-03-02T00:28:00;41.099998;34.633335;21.583334
77516;PMS7003;68414;53.946;27.634;2024-03-02T00:29:00;35.366665;32.799999;20.766666
77516;PMS7003;68414;53.946;27.634;2024-03-02T00:30:01;39.816666;35.099998;20.766666
77516;PMS7003;68414;53.946;27.634;2024-03-02T00:32:00;37.049999;33.433334;20.666666
77516;PMS7003;68414;53.946;27.634;2024-03-02T00:33:00;38.200001;34.166668;21.583334
77516;PMS7003;68414;53.946;27.634;2024-03-02T00:34:02;35.016666;32.700001;20.766666
77516;PMS7003;68414;53.946;27.634;2024-03-02T00:35:00;37.500000;32.650002;20.866667
77516;PMS7003;68414;53.946;27.634;2024-03-02T00:36:01;41.583332;35.333332;21.350000
77516;PMS7003;68414;53.946;27.634;2024-03-02T00:37:00;37.266666;32.966667;21.150000
77516;PMS7003;68414;53.946;27.634;2024-03-02T00:39:02;42.299999;35.583332;21.500000
77516;PMS7003;68414;53.946;27.634;2024-03-02T00:40:00;39.566666;34.766666;22.133333
77516;PMS7003;68414;53.946;27.634;2024-03-02T00:42:00;37.250000;33.466667;20.816668
77516;PMS7003;68414;53.946;27.634;2024-03-02T00:43:01;40.316666;35.066666;20.483334
77516;PMS7003;68414;53.946;27.634;2024-03-02T00:44:02;36.816666;33.466667;19.966667
77516;PMS7003;68414;53.946;27.634;2024-03-02T00:45:00;39.216667;33.816666;21.266666
77516;PMS7003;68414;53.946;27.634;2024-03-02T00:46:00;42.133335;35.833332;22.366667
77516;PMS7003;68414;53.946;27.634;2024-03-02T00:47:00;40.099998;34.849998;21.633333
77516;PMS7003;68414;53.946;27.634;2024-03-02T00:48:00;41.000000;34.700001;21.383333
77516;PMS7003;68414;53.946;27.634;2024-03-02T00:49:02;40.666668;34.750000;20.500000
77516;PMS7003;68414;53.946;27.634;2024-03-02T00:50:00;39.966667;35.083332;21.316668
77516;PMS7003;68414;53.946;27.634;2024-03-02T00:51:03;38.400002;34.450001;21.566668
77516;PMS7003;68414;53.946;27.634;2024-03-02T00:52:00;34.983334;32.583332;22.183332
77516;PMS7003;68414;53.946;27.634;2024-03-02T00:53:01;38.433334;33.950001;20.700001
77516;PMS7003;68414;53.946;27.634;2024-03-02T00:54:03;40.066666;34.950001;22.033333
77516;PMS7003;68414;53.946;27.634;2024-03-02T00:55:00;37.633335;34.433334;21.283333
77516;PMS7003;68414;53.946;27.634;2024-03-02T00:56:01;39.549999;34.233334;22.183332
77516;PMS7003;68414;53.946;27.634;2024-03-02T00:57:00;40.549999;34.349998;20.799999
77516;PMS7003;68414;53.946;27.634;2024-03-02T00:58:00;43.000000;34.983334;21.233334
77516;PMS7003;68414;53.946;27.634;2024-03-02T00:59:00;40.183334;34.816666;21.133333
77516;PMS7003;68414;53.946;27.634;2024-03-02T01:00:00;39.566666;34.766666;21.933332
77516;PMS7003;68414;53.946;27.634;2024-03-02T01:01:00;38.599998;34.033333;20.900000
77516;PMS7003;68414;53.946;27.634;2024-03-02T01:02:00;43.383335;35.799999;21.450001
77516;PMS7003;68414;53.946;27.634;2024-03-02T01:03:00;40.333332;34.450001;21.799999
77516;PMS7003;68414;53.946;27.634;2024-03-02T01:04:00;40.483334;34.816666;21.783333
77516;PMS7003;68414;53.946;27.634;2024-03-02T01:05:02;41.683334;36.166668;21.600000
77516;PMS7003;68414;53.946;27.634;2024-03-02T01:06:01;41.116665;35.733334;21.316668
77516;PMS7003;68414;53.946;27.634;2024-03-02T01:07:00;40.650002;35.366665;20.850000
77516;PMS7003;68414;53.946;27.634;2024-03-02T01:08:00;42.716667;36.966667;21.000000
77516;PMS7003;68414;53.946;27.634;2024-03-02T01:09:00;40.333332;33.383335;21.316668
77516;PMS7003;68414;53.946;27.634;2024-03-02T01:10:00;42.033333;35.916668;21.866667
77516;PMS7003;68414;53.946;27.634;2024-03-02T01:11:00;40.566666;34.283333;21.799999
77516;PMS7003;68414;53.946;27.634;2024-03-02T01:12:00;41.750000;35.516666;21.799999
77516;PMS7003;68414;53.946;27.634;2024-03-02T01:13:00;39.049999;34.200001;21.233334
77516;PMS7003;68414;53.946;27.634;2024-03-02T01:14:02;38.583332;33.599998;21.650000
77516;PMS7003;68414;53.946;27.634;2024-03-02T01:15:00;39.950001;34.283333;21.716667
77516;PMS7003;68414;53.946;27.634;2024-03-02T01:16:00;41.616665;35.533333;21.666666
77516;PMS7003;68414;53.946;27.634;2024-03-02T01:17:00;36.900002;33.833332;20.366667
77516;PMS7003;68414;53.946;27.634;2024-03-02T01:18:00;35.500000;32.966667;21.166666
77516;PMS7003;68414;53.946;27.634;2024-03-02T01:19:00;38.633335;34.116665;21.650000
77516;PMS7003;68414;53.946;27.634;2024-03-02T01:20:00;41.099998;35.466667;21.666666
77516;PMS7003;68414;53.946;27.634;2024-03-02T01:21:00;40.366665;35.049999;21.200001
77516;PMS7003;68414;53.946;27.634;2024-03-02T01:22:00;40.966667;34.450001;20.866667
77516;PMS7003;68414;53.946;27.634;2024-03-02T01:23:00;39.049999;34.316666;21.700001
77516;PMS7003;68414;53.946;27.634;2024-03-02T01:24:02;40.650002;35.133335;21.266666
77516;PMS7003;68414;53.946;27.634;2024-03-02T01:25:00;41.849998;35.616665;21.866667
77516;PMS7003;68414;53.946;27.634;2024-03-02T01:26:00;39.733334;34.799999;21.450001
77516;PMS7003;68414;53.946;27.634;2024-03-02T01:27:00;41.333332;36.083332;22.933332
77516;PMS7003;68414;53.946;27.634;2024-03-02T01:28:02;38.633335;34.650002;21.316668
77516;PMS7003;68414;53.946;27.634;2024-03-02T01:29:00;38.266666;33.966667;21.283333
77516;PMS7003;68414;53.946;27.634;2024-03-02T01:30:00;39.950001;34.250000;21.683332
77516;PMS7003;68414;53.946;27.634;2024-03-02T01:31:00;36.549999;32.299999;20.916666
77516;PMS7003;68414;53.946;27.634;2024-03-02T01:32:00;38.200001;33.950001;22.000000
77516;PMS7003;68414;53.946;27.634;2024-03-02T01:33:00;37.516666;34.066666;22.066668
77516;PMS7003;68414;53.946;27.634;2024-03-02T01:34:00;40.349998;35.233334;21.616667
77516;PMS7003;68414;53.946;27.634;2024-03-02T01:35:00;40.750000;34.883335;21.600000
77516;PMS7003;68414;53.946;27.634;2024-03-02T01:36:00;42.266666;35.866665;21.816668
77516;PMS7003;68414;53.946;27.634;2024-03-02T01:37:00;41.799999;35.666668;22.116667
77516;PMS7003;68414;53.946;27.634;2024-03-02T01:38:00;39.566666;33.950001;21.816668
77516;PMS7003;68414;53.946;27.634;2024-03-02T01:39:00;35.866665;33.166668;21.683332
77516;PMS7003;68414;53.946;27.634;2024-03-02T01:40:00;38.933334;34.433334;21.283333
77516;PMS7003;68414;53.946;27.634;2024-03-02T01:41:00;41.549999;35.716667;21.900000
77516;PMS7003;68414;53.946;27.634;2024-03-02T01:42:00;39.950001;35.133335;20.900000
77516;PMS7003;68414;53.946;27.634;2024-03-02T01:43:00;43.316666;36.349998;22.016666
77516;PMS7003;68414;53.946;27.634;2024-03-02T01:44:00;42.933334;35.916668;21.983334
77516;PMS7003;68414;53.946;27.634;2024-03-02T01:45:00;42.533333;36.283333;21.533333
77516;PMS7003;68414;53.946;27.634;2024-03-02T01:46:00;42.250000;36.133335;21.733334
77516;PMS7003;68414;53.946;27.634;2024-03-02T01:47:00;44.916668;36.750000;22.450001
77516;PMS7003;68414;53.946;27.634;2024-03-02T01:48:00;40.966667;35.583332;21.799999
77516;PMS7003;68414;53.946;27.634;2024-03-02T01:49:00;39.266666;34.483334;21.799999
77516;PMS7003;68414;53.946;27.634;2024-03-02T01:50:01;39.633335;35.233334;21.966667
77516;PMS7003;68414;53.946;27.634;2024-03-02T01:51:00;43.383335;36.099998;21.700001
77516;PMS7003;68414;53.946;27.634;2024-03-02T01:52:00;40.166668;35.366665;22.000000
77516;PMS7003;68414;53.946;27.634;2024-03-02T01:53:00;38.750000;33.766666;22.100000
77516;PMS7003;68414;53.946;27.634;2024-03-02T01:54:00;42.450001;35.750000;22.299999
77516;PMS7003;68414;53.946;27.634;2024-03-02T01:55:00;42.533333;36.200001;21.166666
77516;PMS7003;68414;53.946;27.634;2024-03-02T01:56:00;41.716667;34.450001;22.133333
77516;PMS7003;68414;53.946;27.634;2024-03-02T01:57:02;43.799999;36.349998;21.616667
77516;PMS7003;68414;53.946;27.634;2024-03-02T01:58:03;43.633335;36.433334;22.183332
77516;PMS7003;68414;53.946;27.634;2024-03-02T01:59:03;40.366665;35.150002;22.049999
77516;PMS7003;68414;53.946;27.634;2024-03-02T02:00:00;39.416668;34.466667;22.333334
77516;PMS7003;68414;53.946;27.634;2024-03-02T02:01:00;39.450001;35.216667;22.966667
77516;PMS7003;68414;53.946;27.634;2024-03-02T02:02:00;39.849998;34.750000;22.633333
77516;PMS7003;68414;53.946;27.634;2024-03-02T02:03:00;40.799999;36.016666;22.866667
77516;PMS7003;68414;53.946;27.634;2024-03-02T02:04:00;43.700001;37.250000;22.766666
77516;PMS7003;68414;53.946;27.634;2024-03-02T02:05:00;40.866665;36.083332;22.816668
77516;PMS7003;68414;53.946;27.634;2024-03-02T02:06:00;38.883335;34.766666;22.400000
77516;PMS7003;68414;53.946;27.634;2024-03-02T02:07:00;40.416668;35.000000;21.566668
77516;PMS7003;68414;53.946;27.634;2024-03-02T02:08:01;39.966667;35.150002;22.383333
77516;PMS7003;68414;53.946;27.634;2024-03-02T02:09:00;40.549999;34.349998;22.533333
77516;PMS7003;68414;53.946;27.634;2024-03-02T02:10:00;44.150002;37.083332;23.516666
77516;PMS7003;68414;53.946;27.634;2024-03-02T02:11:00;43.733334;37.083332;22.299999
77516;PMS7003;68414;53.946;27.634;2024-03-02T02:12:00;43.316666;36.683334;22.250000
77516;PMS7003;68414;53.946;27.634;2024-03-02T02:13:01;43.500000;35.433334;21.650000
77516;PMS7003;68414;53.946;27.634;2024-03-02T02:14:00;42.316666;36.450001;22.750000
77516;PMS7003;68414;53.946;27.634;2024-03-02T02:15:00;41.283333;36.033333;22.116667
77516;PMS7003;68414;53.946;27.634;2024-03-02T02:17:00;39.099998;34.183334;21.500000
77516;PMS7003;68414;53.946;27.634;2024-03-02T02:18:00;42.666668;36.450001;22.750000
77516;PMS7003;68414;53.946;27.634;2024-03-02T02:19:00;43.750000;37.150002;22.316668
77516;PMS7003;68414;53.946;27.634;2024-03-02T02:20:00;39.900002;34.049999;22.216667
77516;PMS7003;68414;53.946;27.634;2024-03-02T02:21:00;40.666668;35.283333;22.116667
77516;PMS7003;68414;53.946;27.634;2024-03-02T02:22:00;41.216667;35.000000;21.883333
77516;PMS7003;68414;53.946;27.634;2024-03-02T02:23:01;41.283333;35.316666;22.600000
77516;PMS7003;68414;53.946;27.634;2024-03-02T02:24:00;39.166668;34.583332;22.450001
77516;PMS7003;68414;53.946;27.634;2024-03-02T02:25:00;38.700001;34.933334;21.799999
77516;PMS7003;68414;53.946;27.634;2024-03-02T02:26:00;42.783333;37.233334;22.200001
77516;PMS7003;68414;53.946;27.634;2024-03-02T02:27:00;42.833332;35.816666;21.883333
77516;PMS7003;68414;53.946;27.634;2024-03-02T02:28:00;43.116665;36.983334;22.783333
77516;PMS7003;68414;53.946;27.634;2024-03-02T02:29:00;43.950001;36.750000;23.350000
77516;PMS7003;68414;53.946;27.634;2024-03-02T02:30:00;38.483334;33.650002;21.416666
77516;PMS7003;68414;53.946;27.634;2024-03-02T02:31:00;45.783333;37.966667;22.883333
77516;PMS7003;68414;53.946;27.634;2024-03-02T02:32:00;41.700001;36.299999;22.816668
77516;PMS7003;68414;53.946;27.634;2024-03-02T02:33:01;41.599998;34.950001;22.516666
77516;PMS7003;68414;53.946;27.634;2024-03-02T02:34:01;38.049999;33.400002;21.533333
77516;PMS7003;68414;53.946;27.634;2024-03-02T02:35:01;42.283333;36.549999;22.316668
77516;PMS7003;68414;53.946;27.634;2024-03-02T02:36:00;42.583332;36.016666;22.966667
77516;PMS7003;68414;53.946;27.634;2024-03-02T02:37:00;41.816666;36.650002;23.416666
77516;PMS7003;68414;53.946;27.634;2024-03-02T02:38:00;39.000000;33.549999;21.166666
77516;PMS7003;68414;53.946;27.634;2024-03-02T02:39:02;43.433334;37.033333;22.033333
77516;PMS7003;68414;53.946;27.634;2024-03-02T02:40:00;39.250000;34.049999;21.799999
77516;PMS7003;68414;53.946;27.634;2024-03-02T02:41:00;42.133335;35.916668;22.033333
77516;PMS7003;68414;53.946;27.634;2024-03-02T02:42:00;40.666668;34.633335;21.333334
77516;PMS7003;68414;53.946;27.634;2024-03-02T02:43:00;41.450001;36.033333;22.266666
77516;PMS7003;68414;53.946;27.634;2024-03-02T02:44:01;40.766666;35.349998;22.116667
77516;PMS7003;68414;53.946;27.634;2024-03-02T02:45:00;43.450001;36.833332;23.166666
77516;PMS7003;68414;53.946;27.634;2024-03-02T02:46:01;43.133335;36.266666;21.866667
77516;PMS7003;68414;53.946;27.634;2024-03-02T02:47:00;42.450001;36.866665;21.533333
77516;PMS7003;68414;53.946;27.634;2024-03-02T02:48:00;42.816666;37.000000;21.950001
77516;PMS7003;68414;53.946;27.634;2024-03-02T02:49:00;41.450001;35.616665;21.916666
77516;PMS7003;68414;53.946;27.634;2024-03-02T02:50:00;40.683334;36.150002;22.950001
77516;PMS7003;68414;53.946;27.634;2024-03-02T02:51:00;42.183334;36.500000;22.100000
77516;PMS7003;68414;53.946;27.634;2024-03-02T02:52:00;44.316666;36.733334;22.833334
77516;PMS7003;68414;53.946;27.634;2024-03-02T02:52:59;38.133335;34.983334;21.633333
77516;PMS7003;68414;53.946;27.634;2024-03-02T02:54:00;37.033333;32.750000;20.799999
77516;PMS7003;68414;53.946;27.634;2024-03-02T02:55:00;41.866665;36.400002;22.583334
77516;PMS7003;68414;53.946;27.634;2024-03-02T02:56:00;36.750000;32.000000;21.049999
77516;PMS7003;68414;53.946;27.634;2024-03-02T02:57:00;43.083332;35.799999;21.650000
77516;PMS7003;68414;53.946;27.634;2024-03-02T02:58:00;37.016666;33.116665;20.066668
77516;PMS7003;68414;53.946;27.634;2024-03-02T02:59:00;39.116665;34.533333;21.200001
77516;PMS7003;68414;53.946;27.634;2024-03-02T03:00:03;37.466667;32.650002;20.866667
77516;PMS7003;68414;53.946;27.634;2024-03-02T03:01:01;43.166668;36.700001;21.416666
77516;PMS7003;68414;53.946;27.634;2024-03-02T03:02:00;40.766666;34.799999;22.450001
77516;PMS7003;68414;53.946;27.634;2024-03-02T03:03:00;35.233334;32.416668;21.083334
77516;PMS7003;68414;53.946;27.634;2024-03-02T03:04:01;39.000000;33.733334;21.400000
77516;PMS7003;68414;53.946;27.634;2024-03-02T03:05:00;40.200001;34.950001;21.816668
77516;PMS7003;68414;53.946;27.634;2024-03-02T03:06:00;37.883335;33.400002;21.466667
77516;PMS7003;68414;53.946;27.634;2024-03-02T03:07:00;38.766666;34.016666;21.700001
77516;PMS7003;68414;53.946;27.634;2024-03-02T03:08:00;36.433334;32.916668;20.299999
77516;PMS7003;68414;53.946;27.634;2024-03-02T03:09:00;37.633335;33.616665;20.950001
77516;PMS7003;68414;53.946;27.634;2024-03-02T03:10:01;34.066666;31.299999;19.783333
77516;PMS7003;68414;53.946;27.634;2024-03-02T03:11:00;39.683334;34.200001;21.450001
77516;PMS7003;68414;53.946;27.634;2024-03-02T03:12:00;39.933334;35.083332;21.216667
77516;PMS7003;68414;53.946;27.634;2024-03-02T03:13:00;38.566666;34.333332;21.633333
77516;PMS7003;68414;53.946;27.634;2024-03-02T03:14:01;39.216667;33.983334;22.500000
77516;PMS7003;68414;53.946;27.634;2024-03-02T03:15:01;39.299999;35.099998;21.500000
77516;PMS7003;68414;53.946;27.634;2024-03-02T03:16:00;37.500000;32.599998;20.049999
77516;PMS7003;68414;53.946;27.634;2024-03-02T03:17:00;39.466667;34.166668;21.750000
77516;PMS7003;68414;53.946;27.634;2024-03-02T03:17:59;34.549999;31.650000;20.583334
77516;PMS7003;68414;53.946;27.634;2024-03-02T03:19:00;40.000000;35.049999;21.683332
77516;PMS7003;68414;53.946;27.634;2024-03-02T03:20:02;36.383335;33.133335;21.533333
77516;PMS7003;68414;53.946;27.634;2024-03-02T03:21:00;38.450001;34.233334;21.466667
77516;PMS7003;68414;53.946;27.634;2024-03-02T03:22:00;35.783333;33.033333;20.049999
77516;PMS7003;68414;53.946;27.634;2024-03-02T03:23:00;36.116665;31.683332;20.633333
77516;PMS7003;68414;53.946;27.634;2024-03-02T03:23:59;36.250000;33.316666;20.666666
77516;PMS7003;68414;53.946;27.634;2024-03-02T03:25:00;36.483334;33.283333;21.183332
77516;PMS7003;68414;53.946;27.634;2024-03-02T03:26:02;37.516666;33.099998;21.299999
77516;PMS7003;68414;53.946;27.634;2024-03-02T03:27:00;38.583332;33.733334;20.750000
77516;PMS7003;68414;53.946;27.634;2024-03-02T03:28:00;36.683334;32.450001;21.533333
77516;PMS7003;68414;53.946;27.634;2024-03-02T03:29:00;36.000000;32.049999;20.816668
77516;PMS7003;68414;53.946;27.634;2024-03-02T03:30:00;37.049999;33.516666;20.266666
77516;PMS7003;68414;53.946;27.634;2024-03-02T03:31:00;33.783333;30.750000;19.350000
77516;PMS7003;68414;53.946;27.634;2024-03-02T03:32:00;33.033333;31.116667;20.766666
77516;PMS7003;68414;53.946;27.634;2024-03-02T03:33:00;36.283333;32.833332;20.933332
77516;PMS7003;68414;53.946;27.634;2024-03-02T03:34:00;36.500000;33.116665;21.350000
77516;PMS7003;68414;53.946;27.634;2024-03-02T03:35:00;38.133335;33.450001;20.833334
77516;PMS7003;68414;53.946;27.634;2024-03-02T03:36:00;34.700001;31.983334;20.616667
77516;PMS7003;68414;53.946;27.634;2024-03-02T03:36:59;37.133335;33.516666;21.549999
77516;PMS7003;68414;53.946;27.634;2024-03-02T03:37:59;34.183334;31.066668;20.333334
77516;PMS7003;68414;53.946;27.634;2024-03-02T03:39:00;34.366665;31.933332;21.000000
77516;PMS7003;68414;53.946;27.634;2024-03-02T03:40:00;39.799999;34.466667;21.350000
77516;PMS7003;68414;53.946;27.634;2024-03-02T03:41:00;37.900002;33.983334;20.750000
77516;PMS7003;68414;53.946;27.634;2024-03-02T03:41:59;39.083332;33.650002;20.700001
77516;PMS7003;68414;53.946;27.634;2024-03-02T03:42:59;36.666668;33.033333;21.383333
77516;PMS7003;68414;53.946;27.634;2024-03-02T03:44:00;36.549999;31.333334;20.850000
77516;PMS7003;68414;53.946;27.634;2024-03-02T03:45:00;37.466667;34.216667;21.816668
77516;PMS7003;68414;53.946;27.634;2024-03-02T03:46:01;37.116665;33.316666;21.450001
77516;PMS7003;68414;53.946;27.634;2024-03-02T03:46:59;33.099998;30.650000;21.100000
77516;PMS7003;68414;53.946;27.634;2024-03-02T03:47:59;34.766666;32.000000;20.900000
77516;PMS7003;68414;53.946;27.634;2024-03-02T03:49:03;36.916668;32.016666;20.900000
77516;PMS7003;68414;53.946;27.634;2024-03-02T03:50:00;35.283333;32.049999;21.200001
77516;PMS7003;68414;53.946;27.634;2024-03-02T03:51:00;34.066666;31.016666;20.966667
77516;PMS7003;68414;53.946;27.634;2024-03-02T03:51:59;35.033333;32.033333;20.200001
77516;PMS7003;68414;53.946;27.634;2024-03-02T03:52:59;33.216667;29.083334;19.950001
77516;PMS7003;68414;53.946;27.634;2024-03-02T03:54:00;34.466667;32.250000;18.900000
77516;PMS7003;68414;53.946;27.634;2024-03-02T03:55:00;37.616665;31.616667;20.133333
77516;PMS7003;68414;53.946;27.634;2024-03-02T03:56:00;38.500000;33.133335;21.049999
77516;PMS7003;68414;53.946;27.634;2024-03-02T03:57:00;36.250000;32.366665;20.750000
77516;PMS7003;68414;53.946;27.634;2024-03-02T03:58:01;34.116665;30.400000;20.750000
77516;PMS7003;68414;53.946;27.634;2024-03-02T03:59:00;34.616665;31.400000;20.616667
77516;PMS7003;68414;53.946;27.634;2024-03-02T03:59:59;36.299999;32.416668;20.733334
77516;PMS7003;68414;53.946;27.634;2024-03-02T04:01:01;39.299999;34.866665;20.750000
77516;PMS7003;68414;53.946;27.634;2024-03-02T04:02:00;36.150002;32.616665;20.466667
77516;PMS7003;68414;53.946;27.634;2024-03-02T04:02:59;37.483334;34.283333;21.383333
77516;PMS7003;68414;53.946;27.634;2024-03-02T04:04:00;40.099998;33.916668;22.083334
77516;PMS7003;68414;53.946;27.634;2024-03-02T04:04:59;38.433334;34.150002;21.583334
77516;PMS7003;68414;53.946;27.634;2024-03-02T04:05:59;36.933334;32.383335;21.250000
77516;PMS7003;68414;53.946;27.634;2024-03-02T04:06:59;37.650002;33.583332;21.200001
77516;PMS7003;68414;53.946;27.634;2024-03-02T04:08:00;37.616665;32.916668;20.916666
77516;PMS7003;68414;53.946;27.634;2024-03-02T04:08:59;35.233334;32.783333;20.566668
77516;PMS7003;68414;53.946;27.634;2024-03-02T04:10:00;36.633335;32.950001;21.166666
77516;PMS7003;68414;53.946;27.634;2024-03-02T04:11:00;38.349998;34.450001;21.316668
77516;PMS7003;68414;53.946;27.634;2024-03-02T04:12:00;37.666668;34.083332;20.933332
77516;PMS7003;68414;53.946;27.634;2024-03-02T04:12:59;34.500000;32.650002;21.183332
77516;PMS7003;68414;53.946;27.634;2024-03-02T04:14:01;38.733334;34.316666;21.683332
77516;PMS7003;68414;53.946;27.634;2024-03-02T04:15:00;38.633335;33.533333;20.666666
77516;PMS7003;68414;53.946;27.634;2024-03-02T04:16:02;37.799999;33.266666;21.233334
77516;PMS7003;68414;53.946;27.634;2024-03-02T04:17:00;34.750000;32.200001;20.183332
77516;PMS7003;68414;53.946;27.634;2024-03-02T04:18:00;34.299999;31.600000;21.566668
77516;PMS7003;68414;53.946;27.634;2024-03-02T04:19:00;35.450001;32.466667;20.950001
77516;PMS7003;68414;53.946;27.634;2024-03-02T04:20:00;36.316666;31.666666;19.250000
77516;PMS7003;68414;53.946;27.634;2024-03-02T04:21:01;37.666668;32.433334;20.883333
77516;PMS7003;68414;53.946;27.634;2024-03-02T04:21:59;34.533333;32.700001;21.566668
77516;PMS7003;68414;53.946;27.634;2024-03-02T04:22:59;37.983334;34.133335;21.366667
77516;PMS7003;68414;53.946;27.634;2024-03-02T04:24:00;35.133335;32.650002;20.716667
77516;PMS7003;68414;53.946;27.634;2024-03-02T04:25:02;34.049999;31.366667;20.250000
77516;PMS7003;68414;53.946;27.634;2024-03-02T04:25:59;34.950001;32.466667;19.716667
77516;PMS7003;68414;53.946;27.634;2024-03-02T04:27:00;33.933334;31.416666;21.533333
77516;PMS7003;68414;53.946;27.634;2024-03-02T04:28:00;34.916668;31.616667;21.200001
77516;PMS7003;68414;53.946;27.634;2024-03-02T04:28:59;39.599998;33.900002;20.566668
77516;PMS7003;68414;53.946;27.634;2024-03-02T04:29:59;34.750000;31.433332;21.066668
77516;PMS7003;68414;53.946;27.634;2024-03-02T04:31:00;34.883335;32.950001;19.666666
77516;PMS7003;68414;53.946;27.634;2024-03-02T04:31:59;33.683334;31.450001;20.033333
77516;PMS7003;68414;53.946;27.634;2024-03-02T04:32:59;34.950001;32.283333;21.049999
77516;PMS7003;68414;53.946;27.634;2024-03-02T04:33:59;36.583332;33.466667;20.850000
77516;PMS7003;68414;53.946;27.634;2024-03-02T04:34:59;35.599998;31.866667;20.733334
77516;PMS7003;68414;53.946;27.634;2024-03-02T04:35:59;37.633335;34.066666;20.433332
77516;PMS7003;68414;53.946;27.634;2024-03-02T04:36:59;33.166668;30.783333;19.883333
77516;PMS7003;68414;53.946;27.634;2024-03-02T04:37:59;35.033333;31.316668;19.933332
77516;PMS7003;68414;53.946;27.634;2024-03-02T04:38:59;31.633333;29.650000;20.350000
77516;PMS7003;68414;53.946;27.634;2024-03-02T04:40:00;35.233334;31.750000;20.133333
77516;PMS7003;68414;53.946;27.634;2024-03-02T04:41:00;34.150002;30.683332;20.233334
77516;PMS7003;68414;53.946;27.634;2024-03-02T04:42:01;37.433334;34.366665;22.450001
77516;PMS7003;68414;53.946;27.634;2024-03-02T04:42:59;36.216667;32.533333;21.850000
77516;PMS7003;68414;53.946;27.634;2024-03-02T04:44:00;33.533333;30.283333;20.500000
77516;PMS7003;68414;53.946;27.634;2024-03-02T04:44:59;32.616665;29.816668;20.166666
77516;PMS7003;68414;53.946;27.634;2024-03-02T04:46:00;36.183334;33.633335;21.250000
77516;PMS7003;68414;53.946;27.634;2024-03-02T04:46:59;35.066666;32.049999;21.299999
77516;PMS7003;68414;53.946;27.634;2024-03-02T04:47:59;32.433334;30.316668;19.283333
77516;PMS7003;68414;53.946;27.634;2024-03-02T04:48:59;35.950001;31.666666;20.700001